Time;durP1;ratioP1;P1;durP2;ratioP2;P2;SDS_P1;SDS_P2;PMS_P1;PMS_P2;Temp;Humidity;BMP_temperature;BMP_pressure;BME280_temperature;BME280_humidity;BME280_pressure;Samples;Min_cycle;Max_cycle;Signal;HPM_P1;HPM_P2
2022/02/15 00:01:32;;;;;;;1.43;1.00;;;8.80;99.90;;;;;;5004283;28;20206;-61
2022/02/15 00:03:58;;;;;;;1.00;1.00;;;8.80;99.90;;;;;;5002345;28;20190;-61
2022/02/15 00:06:23;;;;;;;0.90;0.90;;;9.10;99.90;;;;;;4994343;28;20254;-62
2022/02/15 00:08:49;;;;;;;1.27;1.10;;;9.00;99.90;;;;;;5004095;28;20543;-61
2022/02/15 00:11:15;;;;;;;1.10;1.00;;;8.70;99.90;;;;;;5008434;28;20216;-61
2022/02/15 00:13:40;;;;;;;1.40;1.30;;;8.80;99.90;;;;;;5000521;28;20842;-61
2022/02/15 00:16:06;;;;;;;1.20;1.00;;;8.80;99.90;;;;;;4999261;28;20218;-60
2022/02/15 00:18:31;;;;;;;1.10;1.00;;;8.70;99.90;;;;;;4988096;28;20282;-61
2022/02/15 00:20:57;;;;;;;2.20;1.13;;;8.90;99.90;;;;;;4999653;28;20253;-62
2022/02/15 00:23:23;;;;;;;1.17;1.00;;;8.70;99.90;;;;;;5006083;28;20223;-61
2022/02/15 00:25:48;;;;;;;1.20;1.10;;;8.80;99.90;;;;;;4995986;28;20804;-61
2022/02/15 00:28:14;;;;;;;1.30;1.20;;;8.80;99.90;;;;;;5008282;28;20199;-61
2022/02/15 00:30:40;;;;;;;1.60;1.50;;;8.40;99.90;;;;;;5002568;28;20209;-61
2022/02/15 00:33:05;;;;;;;1.20;1.10;;;8.70;99.90;;;;;;4999762;28;20270;-61
2022/02/15 00:35:31;;;;;;;1.70;1.60;;;8.70;99.90;;;;;;5001083;28;20559;-61
2022/02/15 00:37:57;;;;;;;1.43;1.33;;;8.60;99.90;;;;;;5007991;28;20976;-61
2022/02/15 00:40:22;;;;;;;2.37;1.67;;;8.70;99.90;;;;;;5003390;28;20206;-61
2022/02/15 00:42:48;;;;;;;2.80;1.40;;;8.80;99.90;;;;;;5001686;28;20183;-60
2022/02/15 00:45:13;;;;;;;1.50;1.17;;;8.50;99.90;;;;;;4998023;28;20214;-61
2022/02/15 00:47:39;;;;;;;1.37;1.27;;;8.80;99.90;;;;;;5000477;28;20261;-60
2022/02/15 00:50:06;;;;;;;1.77;1.67;;;8.80;99.90;;;;;;5003287;28;20206;-61
2022/02/15 00:52:31;;;;;;;1.75;1.50;;;9.00;99.90;;;;;;4998173;28;20630;-61
2022/02/15 00:54:57;;;;;;;1.50;1.40;;;8.70;99.90;;;;;;5007671;28;20218;-66
2022/02/15 00:57:23;;;;;;;1.60;1.50;;;8.60;99.90;;;;;;5008375;28;20199;-60
2022/02/15 00:59:50;;;;;;;1.70;1.60;;;8.80;99.90;;;;;;4991256;28;20439;-61
2022/02/15 01:02:16;;;;;;;2.13;1.70;;;8.70;99.90;;;;;;5002210;28;20461;-61
2022/02/15 01:04:41;;;;;;;4.77;1.50;;;8.80;99.90;;;;;;4989810;28;20277;-63
2022/02/15 01:07:07;;;;;;;1.53;1.43;;;8.60;99.90;;;;;;5000774;28;20707;-61
2022/02/15 01:09:33;;;;;;;1.37;1.27;;;8.80;99.90;;;;;;5003432;28;20913;-61
2022/02/15 01:11:59;;;;;;;1.60;1.50;;;8.70;99.90;;;;;;5004225;28;20231;-61
2022/02/15 01:14:25;;;;;;;1.75;1.50;;;8.80;99.90;;;;;;4995932;28;20190;-61
2022/02/15 01:16:50;;;;;;;1.50;1.40;;;9.00;99.90;;;;;;5002985;28;20175;-61
2022/02/15 01:19:16;;;;;;;1.67;1.57;;;8.70;99.90;;;;;;5001488;28;20210;-61
2022/02/15 01:21:42;;;;;;;1.60;1.50;;;9.00;99.90;;;;;;5000954;28;20275;-61
2022/02/15 01:24:07;;;;;;;2.47;1.60;;;8.80;99.90;;;;;;5004201;28;20195;-60
2022/02/15 01:26:33;;;;;;;2.97;1.57;;;8.60;99.90;;;;;;4999664;28;20215;-60
2022/02/15 01:28:59;;;;;;;2.60;1.77;;;8.50;99.90;;;;;;4997994;28;20191;-60
2022/02/15 01:31:24;;;;;;;1.53;1.43;;;8.60;99.90;;;;;;4994708;28;20862;-61
2022/02/15 01:33:50;;;;;;;1.67;1.57;;;8.50;99.90;;;;;;4999448;28;20257;-61
2022/02/15 01:36:16;;;;;;;1.93;1.83;;;8.40;99.90;;;;;;5002375;28;20171;-61
2022/02/15 01:38:41;;;;;;;2.83;1.83;;;8.30;99.90;;;;;;5003877;28;20190;-61
2022/02/15 01:41:08;;;;;;;1.90;1.80;;;8.30;99.90;;;;;;5005572;28;20599;-61
2022/02/15 01:43:41;;;;;;;3.22;1.88;;;8.10;99.90;;;;;;4997224;28;20214;-61
2022/02/15 01:46:07;;;;;;;1.42;1.33;;;8.20;99.90;;;;;;5003594;28;20751;-61
2022/02/15 01:48:34;;;;;;;2.10;1.70;;;8.20;99.90;;;;;;5002400;28;20206;-61
2022/02/15 01:51:01;;;;;;;1.95;1.65;;;8.20;99.90;;;;;;4999148;28;20207;-62
2022/02/15 01:53:27;;;;;;;2.65;1.67;;;8.10;99.90;;;;;;5011627;28;20274;-61
2022/02/15 01:55:52;;;;;;;2.07;1.70;;;8.10;99.90;;;;;;5003400;28;20261;-61
2022/02/15 01:58:19;;;;;;;1.43;1.33;;;8.00;99.90;;;;;;4994196;28;20211;-60
2022/02/15 02:00:44;;;;;;;2.00;1.65;;;8.00;99.90;;;;;;4999244;28;20212;-61
2022/02/15 02:03:10;;;;;;;1.80;1.40;;;8.10;99.90;;;;;;4997326;28;20188;-61
2022/02/15 02:05:47;;;;;;;3.30;1.93;;;7.60;99.90;;;;;;5010521;28;20211;-61
2022/02/15 02:08:18;;;;;;;1.70;1.60;;;8.00;99.90;;;;;;5006482;28;20248;-61
2022/02/15 02:10:44;;;;;;;1.30;1.20;;;8.20;99.90;;;;;;5001822;28;20246;-60
2022/02/15 02:13:10;;;;;;;1.90;1.70;;;8.00;99.90;;;;;;4997474;28;20183;-60
2022/02/15 02:15:36;;;;;;;1.67;1.57;;;8.00;99.90;;;;;;5004963;28;20195;-60
2022/02/15 02:18:02;;;;;;;1.53;1.40;;;8.10;99.90;;;;;;5001998;28;20425;-61
2022/02/15 02:20:28;;;;;;;2.10;1.50;;;8.00;99.90;;;;;;5009715;28;20544;-61
2022/02/15 02:22:53;;;;;;;1.77;1.67;;;7.90;99.90;;;;;;5005219;28;20325;-61
2022/02/15 02:25:21;;;;;;;1.30;1.20;;;7.90;99.90;;;;;;5010866;28;20253;-61
2022/02/15 02:27:47;;;;;;;2.33;1.60;;;8.00;99.90;;;;;;4991698;28;20647;-61
2022/02/15 02:30:13;;;;;;;1.43;1.30;;;7.90;99.90;;;;;;5005811;28;20206;-61
2022/02/15 02:32:39;;;;;;;1.20;1.10;;;7.90;99.90;;;;;;5003854;28;20450;-60
2022/02/15 02:35:06;;;;;;;3.15;1.58;;;7.80;99.90;;;;;;5003283;28;20194;-60
2022/02/15 02:37:33;;;;;;;1.50;1.40;;;8.00;99.90;;;;;;5000057;28;20269;-61
2022/02/15 02:40:02;;;;;;;1.55;1.45;;;7.80;99.90;;;;;;5002184;28;20191;-61
2022/02/15 02:42:29;;;;;;;1.92;1.35;;;7.60;99.90;;;;;;4992097;28;20195;-61
2022/02/15 02:45:00;;;;;;;1.90;1.80;;;7.60;99.90;;;;;;5003539;28;20215;-61
2022/02/15 02:47:26;;;;;;;2.80;1.25;;;7.60;99.90;;;;;;4995294;28;20210;-61
2022/02/15 02:49:52;;;;;;;3.95;2.00;;;7.70;99.90;;;;;;5017628;28;20191;-62
2022/02/15 02:52:19;;;;;;;2.60;1.45;;;7.80;99.90;;;;;;4999952;28;20218;-61
2022/02/15 02:54:44;;;;;;;1.50;1.40;;;7.80;99.90;;;;;;4998844;28;20195;-61
2022/02/15 02:57:12;;;;;;;1.53;1.43;;;7.60;99.90;;;;;;4995885;28;20265;-61
2022/02/15 02:59:39;;;;;;;1.85;1.65;;;7.80;99.90;;;;;;5011455;28;20187;-60
2022/02/15 03:02:06;;;;;;;3.80;1.90;;;7.90;99.90;;;;;;4999531;28;20215;-61
2022/02/15 03:04:31;;;;;;;5.78;4.47;;;7.90;99.90;;;;;;4990969;28;20343;-61
2022/02/15 03:06:57;;;;;;;2.23;1.70;;;7.80;99.90;;;;;;5007396;28;20221;-61
2022/02/15 03:09:22;;;;;;;1.90;1.70;;;7.70;99.90;;;;;;5010587;28;20195;-61
2022/02/15 03:11:49;;;;;;;2.37;1.63;;;7.70;99.90;;;;;;5000357;28;21036;-60
2022/02/15 03:14:15;;;;;;;2.05;1.60;;;7.30;99.90;;;;;;4996010;28;20271;-61
2022/02/15 03:16:40;;;;;;;2.40;2.00;;;7.90;99.90;;;;;;5002091;28;20267;-60
2022/02/15 03:19:06;;;;;;;2.60;2.37;;;7.90;99.90;;;;;;5001018;28;20314;-61
2022/02/15 03:21:32;;;;;;;3.10;1.50;;;7.80;99.90;;;;;;5005198;28;20558;-61
2022/02/15 03:23:57;;;;;;;1.83;1.70;;;7.70;99.90;;;;;;5003093;28;20461;-61
2022/02/15 03:26:23;;;;;;;3.30;1.60;;;7.90;99.90;;;;;;5001567;28;20305;-61
2022/02/15 03:28:49;;;;;;;2.60;1.47;;;7.80;99.90;;;;;;5001361;28;20194;-61
2022/02/15 03:31:15;;;;;;;2.07;1.87;;;8.00;99.90;;;;;;5009457;28;20282;-61
2022/02/15 03:33:40;;;;;;;1.53;1.40;;;8.00;99.90;;;;;;4998791;28;20187;-61
2022/02/15 03:36:06;;;;;;;2.43;1.47;;;8.10;99.90;;;;;;4998103;28;20462;-61
2022/02/15 03:38:32;;;;;;;1.63;1.50;;;8.00;99.90;;;;;;5004797;28;20201;-61
2022/02/15 03:43:42;;;;;;;1.70;1.40;;;8.10;99.90;;;;;;5004867;28;20202;-61
2022/02/15 03:46:07;;;;;;;4.53;2.03;;;8.20;99.90;;;;;;5005836;28;20222;-61
2022/02/15 03:48:33;;;;;;;3.43;1.80;;;8.00;99.90;;;;;;4999419;28;20191;-61
2022/02/15 03:50:59;;;;;;;2.80;1.70;;;8.10;99.90;;;;;;5008613;28;20214;-61
2022/02/15 03:53:25;;;;;;;2.30;1.60;;;7.90;99.90;;;;;;4998468;28;20430;-61
2022/02/15 03:55:50;;;;;;;3.17;1.70;;;8.00;99.90;;;;;;4998883;28;20413;-61
2022/02/15 03:58:16;;;;;;;4.30;1.70;;;8.30;99.90;;;;;;5002262;28;20188;-61
2022/02/15 04:00:42;;;;;;;2.97;1.50;;;8.10;99.90;;;;;;5001363;28;21055;-61
2022/02/15 04:03:08;;;;;;;3.30;1.60;;;8.10;99.90;;;;;;4991997;28;20210;-61
2022/02/15 04:05:34;;;;;;;1.60;1.40;;;8.10;99.90;;;;;;4992550;28;20261;-61
2022/02/15 04:07:59;;;;;;;1.60;1.23;;;8.60;99.90;;;;;;5004662;28;20613;-61
2022/02/15 04:10:25;;;;;;;1.43;1.30;;;8.00;99.90;;;;;;5002979;28;20203;-61
2022/02/15 04:12:51;;;;;;;4.10;1.77;;;8.30;99.90;;;;;;5002040;28;20198;-61
2022/02/15 04:15:18;;;;;;;2.97;1.77;;;8.10;99.90;;;;;;4998352;28;20863;-61
2022/02/15 04:17:44;;;;;;;2.17;1.63;;;8.20;99.90;;;;;;5001007;28;20180;-61
2022/02/15 04:20:11;;;;;;;2.25;1.40;;;8.20;99.90;;;;;;4992333;28;20190;-61
2022/02/15 04:22:36;;;;;;;4.10;1.30;;;8.30;99.90;;;;;;5001692;28;20195;-61
2022/02/15 04:25:03;;;;;;;3.63;1.50;;;8.00;99.90;;;;;;5006185;28;20268;-61
2022/02/15 04:27:29;;;;;;;1.30;1.10;;;8.10;99.90;;;;;;5002578;28;20215;-61
2022/02/15 04:29:56;;;;;;;1.75;1.30;;;8.40;99.90;;;;;;5008217;28;20195;-61
2022/02/15 04:32:21;;;;;;;2.78;1.42;;;8.20;99.90;;;;;;4994062;28;20207;-61
2022/02/15 04:34:47;;;;;;;2.60;1.70;;;8.30;99.90;;;;;;4997296;28;20653;-61
2022/02/15 04:37:13;;;;;;;1.55;1.38;;;8.40;99.90;;;;;;5003020;28;20199;-60
2022/02/15 04:39:39;;;;;;;2.55;1.63;;;8.20;99.90;;;;;;5004814;28;20190;-61
2022/02/15 04:42:05;;;;;;;3.80;1.60;;;8.40;99.90;;;;;;4995934;28;20289;-61
2022/02/15 04:44:31;;;;;;;1.80;1.50;;;8.10;99.90;;;;;;4993534;28;20425;-61
2022/02/15 04:46:57;;;;;;;2.90;2.10;;;8.20;99.90;;;;;;4998352;28;20210;-61
2022/02/15 04:49:22;;;;;;;2.47;1.60;;;7.50;99.90;;;;;;4992485;28;20839;-61
2022/02/15 04:51:48;;;;;;;1.70;1.60;;;8.30;99.90;;;;;;4997209;28;20451;-61
2022/02/15 04:54:14;;;;;;;2.63;1.90;;;8.10;99.90;;;;;;5008125;28;20215;-61
2022/02/15 04:56:40;;;;;;;3.60;2.00;;;8.20;99.90;;;;;;5042707;23;20233;-88
2022/02/15 04:59:05;;;;;;;2.40;2.20;;;8.50;99.90;;;;;;5044798;28;20272;-89
2022/02/15 05:01:31;;;;;;;2.70;2.30;;;8.20;99.90;;;;;;5046178;28;20193;-90
2022/02/15 05:03:57;;;;;;;2.67;1.90;;;8.20;99.90;;;;;;5046236;28;20186;-89
2022/02/15 05:06:22;;;;;;;2.60;2.00;;;8.30;99.90;;;;;;5054168;28;20209;-88
2022/02/15 05:08:48;;;;;;;2.50;2.07;;;8.10;99.90;;;;;;5036829;28;20558;-90
2022/02/15 05:11:14;;;;;;;3.07;2.60;;;8.20;99.90;;;;;;5024642;28;20178;-89
2022/02/15 05:13:39;;;;;;;2.97;2.67;;;8.20;99.90;;;;;;5032120;28;20181;-89
2022/02/15 05:16:05;;;;;;;4.10;2.80;;;8.70;99.90;;;;;;5037835;28;20673;-89
2022/02/15 05:18:31;;;;;;;3.80;2.47;;;7.70;99.90;;;;;;5033946;28;20243;-88
2022/02/15 05:21:01;;;;;;;3.20;1.93;;;8.50;99.90;;;;;;5014945;28;20186;-88
2022/02/15 05:23:30;;;;;;;2.50;2.30;;;8.20;99.90;;;;;;5032679;28;21002;-88
2022/02/15 05:25:56;;;;;;;2.28;2.00;;;8.00;99.90;;;;;;5036613;28;20214;-89
2022/02/15 05:28:22;;;;;;;3.63;1.90;;;8.20;99.90;;;;;;5031471;28;20248;-89
2022/02/15 05:30:48;;;;;;;2.28;1.75;;;8.30;99.90;;;;;;5032511;28;20247;-89
2022/02/15 05:33:13;;;;;;;2.73;2.10;;;8.40;99.90;;;;;;5034022;28;20261;-89
2022/02/15 05:35:39;;;;;;;2.87;2.03;;;8.30;99.90;;;;;;5032382;28;20185;-88
2022/02/15 05:38:05;;;;;;;2.22;2.03;;;8.40;99.90;;;;;;5040372;28;20206;-91
2022/02/15 05:40:31;;;;;;;1.80;1.70;;;7.90;99.90;;;;;;5031625;28;20190;-89
2022/02/15 05:42:57;;;;;;;1.95;1.70;;;7.50;99.90;;;;;;5033518;28;20186;-88
2022/02/15 05:45:23;;;;;;;2.00;1.43;;;8.00;99.90;;;;;;5032083;28;20260;-89
2022/02/15 05:47:49;;;;;;;2.07;1.73;;;8.10;99.90;;;;;;5037169;28;20214;-89
2022/02/15 05:52:58;;;;;;;2.85;1.60;;;8.00;99.90;;;;;;5031640;28;20241;-89
2022/02/15 05:55:24;;;;;;;1.87;1.67;;;8.10;99.90;;;;;;5032872;28;20198;-87
2022/02/15 05:57:50;;;;;;;1.43;1.30;;;8.40;99.90;;;;;;5028933;28;20222;-88
2022/02/15 06:00:16;;;;;;;3.23;1.70;;;8.10;99.90;;;;;;5039351;28;20232;-88
2022/02/15 06:02:43;;;;;;;2.00;1.87;;;8.10;99.90;;;;;;5034144;28;20186;-87
2022/02/15 06:05:09;;;;;;;1.60;1.50;;;8.20;99.90;;;;;;5036941;28;20556;-88
2022/02/15 06:07:34;;;;;;;1.88;1.30;;;8.60;99.90;;;;;;5044826;28;20194;-88
2022/02/15 06:10:00;;;;;;;1.50;1.40;;;8.60;99.90;;;;;;5044564;28;20190;-88
2022/02/15 06:12:25;;;;;;;1.90;1.47;;;8.50;99.90;;;;;;5024442;28;20278;-87
2022/02/15 06:14:51;;;;;;;1.97;1.50;;;8.60;99.90;;;;;;5036547;28;20201;-89
2022/02/15 06:17:17;;;;;;;2.80;1.93;;;8.60;99.90;;;;;;5030638;28;20267;-88
2022/02/15 06:19:42;;;;;;;2.65;1.75;;;8.30;99.90;;;;;;5032351;28;20224;-88
2022/02/15 06:22:08;;;;;;;1.57;1.47;;;8.50;99.90;;;;;;5029793;28;20205;-87
2022/02/15 06:24:33;;;;;;;1.40;1.30;;;8.40;99.90;;;;;;5027768;28;20210;-89
2022/02/15 06:27:02;;;;;;;1.83;1.60;;;8.60;99.90;;;;;;5027430;28;20202;-88
2022/02/15 06:29:32;;;;;;;1.70;1.60;;;8.50;99.90;;;;;;5029144;28;20178;-88
2022/02/15 06:31:58;;;;;;;2.08;1.73;;;8.20;99.90;;;;;;5046437;28;20601;-88
2022/02/15 06:34:25;;;;;;;3.20;2.25;;;8.70;99.90;;;;;;5030286;28;20183;-89
2022/02/15 06:36:54;;;;;;;1.40;1.25;;;8.40;99.90;;;;;;5038610;28;20220;-89
2022/02/15 06:39:20;;;;;;;2.00;1.83;;;8.40;99.90;;;;;;5038228;28;20178;-89
2022/02/15 06:41:46;;;;;;;3.15;1.55;;;8.30;99.90;;;;;;5029854;28;20190;-89
2022/02/15 06:44:11;;;;;;;3.13;2.03;;;8.30;99.90;;;;;;5033706;28;20186;-88
2022/02/15 06:46:37;;;;;;;3.87;2.07;;;8.50;99.90;;;;;;5035112;28;20257;-89
2022/02/15 06:49:04;;;;;;;2.07;1.77;;;8.70;99.90;;;;;;5028120;28;20178;-89
2022/02/15 06:51:30;;;;;;;3.17;1.95;;;8.50;99.90;;;;;;5046061;28;20522;-89
2022/02/15 06:53:55;;;;;;;4.97;2.45;;;8.40;99.90;;;;;;5034342;28;20187;-89
2022/02/15 06:56:22;;;;;;;1.63;1.53;;;8.30;99.90;;;;;;5029071;28;20694;-90
2022/02/15 06:58:48;;;;;;;2.15;1.92;;;8.60;99.90;;;;;;5025607;28;20186;-89
2022/02/15 07:01:14;;;;;;;2.03;1.80;;;8.50;99.90;;;;;;5027270;28;20212;-88
2022/02/15 07:03:39;;;;;;;2.07;1.93;;;8.50;99.90;;;;;;5021595;28;20193;-88
2022/02/15 07:06:06;;;;;;;1.87;1.77;;;8.50;99.90;;;;;;5015940;28;20659;-90
2022/02/15 07:08:32;;;;;;;1.88;1.58;;;8.50;99.90;;;;;;5036644;28;20187;-88
2022/02/15 07:10:58;;;;;;;2.50;1.75;;;8.10;99.90;;;;;;5032353;28;20209;-88
2022/02/15 07:13:27;;;;;;;2.57;1.80;;;8.40;99.90;;;;;;5025944;28;20265;-86
2022/02/15 07:15:53;;;;;;;1.73;1.60;;;8.30;99.90;;;;;;5040769;28;20284;-84
2022/02/15 07:18:19;;;;;;;3.43;1.70;;;8.50;99.90;;;;;;5025356;28;20186;-83
2022/02/15 07:20:45;;;;;;;2.65;2.45;;;9.10;99.90;;;;;;5030736;28;20422;-87
2022/02/15 07:23:13;;;;;;;3.92;2.13;;;8.20;99.90;;;;;;5030109;28;20904;-88
2022/02/15 07:25:41;;;;;;;1.95;1.75;;;8.80;99.90;;;;;;5042998;28;20802;-84
2022/02/15 07:28:07;;;;;;;2.50;1.83;;;8.10;99.90;;;;;;5038633;28;20198;-85
2022/02/15 07:30:35;;;;;;;2.30;2.00;;;8.60;99.90;;;;;;5033352;28;20196;-85
2022/02/15 07:33:02;;;;;;;3.05;1.90;;;6.30;99.90;;;;;;5024745;28;20182;-86
2022/02/15 07:35:27;;;;;;;2.75;2.10;;;8.50;99.90;;;;;;5050542;28;20659;-88
2022/02/15 07:37:53;;;;;;;2.27;1.83;;;8.50;99.90;;;;;;5028937;28;20206;-89
2022/02/15 07:40:22;;;;;;;1.80;1.70;;;8.50;99.90;;;;;;5031792;28;20182;-90
2022/02/15 07:42:51;;;;;;;2.20;1.60;;;8.50;99.90;;;;;;5036114;28;20183;-92
2022/02/15 07:45:18;;;;;;;3.45;2.80;;;9.10;99.90;;;;;;5053576;28;20210;-88
2022/02/15 07:47:48;;;;;;;2.78;1.80;;;8.50;99.90;;;;;;5022946;28;20711;-87
2022/02/15 07:50:16;;;;;;;2.97;2.28;;;8.20;99.90;;;;;;5036439;28;20190;-87
2022/02/15 07:52:44;;;;;;;2.45;1.90;;;8.60;99.90;;;;;;5034512;28;20191;-88
2022/02/15 07:55:10;;;;;;;1.75;1.65;;;8.90;99.90;;;;;;5021804;28;20194;-86
2022/02/15 07:57:36;;;;;;;11.40;2.13;;;8.50;99.90;;;;;;5028026;28;20215;-86
2022/02/15 08:00:02;;;;;;;5.13;1.70;;;8.70;99.90;;;;;;5045147;28;20229;-84
2022/02/15 08:02:27;;;;;;;3.88;1.80;;;8.80;99.90;;;;;;5027582;28;20186;-85
2022/02/15 08:04:53;;;;;;;2.27;1.80;;;8.70;99.90;;;;;;5020856;28;20183;-84
2022/02/15 08:07:18;;;;;;;1.80;1.70;;;9.10;99.90;;;;;;5031669;28;20519;-85
2022/02/15 08:09:44;;;;;;;2.43;1.37;;;8.60;99.90;;;;;;5029924;28;20193;-83
2022/02/15 08:12:11;;;;;;;1.33;1.20;;;8.90;99.90;;;;;;5034064;28;20709;-88
2022/02/15 08:14:37;;;;;;;1.40;1.30;;;8.70;99.90;;;;;;5038580;28;20203;-88
2022/02/15 08:17:04;;;;;;;1.52;1.42;;;9.30;99.90;;;;;;5029494;28;20206;-88
2022/02/15 08:19:30;;;;;;;1.70;0.98;;;8.60;99.90;;;;;;5030801;28;20201;-85
2022/02/15 08:21:58;;;;;;;1.27;1.17;;;8.70;99.90;;;;;;5030208;28;20270;-85
2022/02/15 08:24:25;;;;;;;1.52;1.30;;;8.80;99.90;;;;;;5034263;28;20669;-85
2022/02/15 08:26:51;;;;;;;2.47;1.60;;;8.90;99.90;;;;;;5030033;28;20646;-89
2022/02/15 08:29:17;;;;;;;1.47;1.30;;;9.30;99.90;;;;;;5021211;28;20225;-84
2022/02/15 08:31:43;;;;;;;2.10;1.90;;;9.30;99.90;;;;;;5028057;28;20458;-83
2022/02/15 08:34:08;;;;;;;1.83;1.40;;;9.50;99.90;;;;;;5019272;28;20694;-88
2022/02/15 08:36:34;;;;;;;2.90;1.60;;;9.40;99.90;;;;;;5028201;28;20458;-88
2022/02/15 08:39:00;;;;;;;3.57;1.60;;;9.60;99.90;;;;;;5034957;28;20182;-86
2022/02/15 08:41:25;;;;;;;2.03;1.80;;;9.40;99.90;;;;;;5020794;28;20212;-91
2022/02/15 08:43:51;;;;;;;3.10;1.60;;;9.40;99.90;;;;;;5025853;28;20190;-88
2022/02/15 08:46:16;;;;;;;1.30;1.20;;;9.50;99.90;;;;;;5022543;28;20245;-88
2022/02/15 08:48:42;;;;;;;1.30;1.20;;;9.90;99.90;;;;;;5029838;28;20324;-89
2022/02/15 08:51:07;;;;;;;1.47;1.13;;;9.40;99.90;;;;;;5014811;28;20645;-88
2022/02/15 08:53:33;;;;;;;1.53;1.43;;;9.60;99.90;;;;;;5023195;28;20202;-84
2022/02/15 08:56:00;;;;;;;1.37;1.27;;;9.40;99.90;;;;;;5031173;28;21423;-85
2022/02/15 08:58:25;;;;;;;2.67;1.60;;;9.70;99.90;;;;;;5023553;28;20554;-86
2022/02/15 09:00:51;;;;;;;4.87;1.50;;;9.80;99.90;;;;;;5052273;28;20634;-84
2022/02/15 09:03:17;;;;;;;2.03;1.17;;;9.50;99.90;;;;;;5017242;28;20191;-84
2022/02/15 09:05:42;;;;;;;1.73;1.00;;;9.40;99.90;;;;;;5035039;28;20293;-84
2022/02/15 09:08:08;;;;;;;1.40;1.30;;;9.90;99.90;;;;;;5021416;28;20207;-82
2022/02/15 09:10:37;;;;;;;1.45;1.27;;;9.60;99.90;;;;;;5028661;28;20195;-82
2022/02/15 09:13:03;;;;;;;1.30;1.20;;;9.50;99.90;;;;;;5033917;28;20215;-82
2022/02/15 09:15:30;;;;;;;1.70;1.10;;;9.40;99.90;;;;;;5030763;28;20222;-84
2022/02/15 09:17:56;;;;;;;1.33;1.20;;;9.70;99.90;;;;;;5021143;28;20203;-82
2022/02/15 09:20:21;;;;;;;1.50;1.40;;;10.50;99.90;;;;;;5009065;28;20200;-84
2022/02/15 09:22:48;;;;;;;1.90;0.97;;;9.90;99.90;;;;;;5023791;28;20191;-83
2022/02/15 09:25:14;;;;;;;2.00;1.40;;;9.50;99.90;;;;;;5040154;28;20198;-83
2022/02/15 09:27:40;;;;;;;1.10;1.02;;;9.90;99.90;;;;;;5029169;28;20584;-83
2022/02/15 09:30:06;;;;;;;1.33;1.17;;;9.70;99.90;;;;;;5020779;28;20179;-85
2022/02/15 09:32:32;;;;;;;1.27;1.10;;;9.70;99.90;;;;;;5023248;28;21922;-85
2022/02/15 09:34:58;;;;;;;1.20;1.10;;;10.00;99.90;;;;;;5030588;28;20343;-84
2022/02/15 09:37:23;;;;;;;1.20;0.97;;;12.00;98.50;;;;;;5029854;28;20837;-87
2022/02/15 09:39:49;;;;;;;1.43;1.17;;;13.30;95.60;;;;;;5029168;28;20239;-87
2022/02/15 09:42:16;;;;;;;2.47;1.30;;;13.50;93.70;;;;;;5028507;28;20245;-92
2022/02/15 09:44:41;;;;;;;1.40;1.30;;;13.20;94.20;;;;;;5024437;28;20254;-88
2022/02/15 09:47:08;;;;;;;1.60;1.50;;;12.50;94.20;;;;;;5028345;28;20284;-87
2022/02/15 09:49:50;;;;;;;1.50;1.40;;;12.60;94.60;;;;;;5041946;28;20194;-86
2022/02/15 09:52:20;;;;;;;1.88;1.60;;;12.20;94.50;;;;;;5025408;28;20189;-86
2022/02/15 09:54:46;;;;;;;2.00;1.80;;;11.80;94.70;;;;;;5031104;28;20189;-88
2022/02/15 09:57:13;;;;;;;2.17;1.52;;;11.90;95.10;;;;;;5024049;28;20312;-86
2022/02/15 09:59:38;;;;;;;3.58;1.73;;;13.00;93.60;;;;;;5028591;28;20185;-89
2022/02/15 10:02:06;;;;;;;1.73;1.40;;;13.30;92.70;;;;;;5031815;28;20232;-91
2022/02/15 10:04:33;;;;;;;4.07;1.50;;;13.70;91.90;;;;;;5018168;28;20193;-87
2022/02/15 10:07:03;;;;;;;2.20;2.00;;;13.50;91.00;;;;;;5035710;28;20213;-87
2022/02/15 10:09:29;;;;;;;3.10;1.55;;;13.90;90.50;;;;;;5038518;28;20205;-87
2022/02/15 10:12:14;;;;;;;2.07;1.60;;;14.10;90.30;;;;;;5038866;28;20236;-86
2022/02/15 10:14:44;;;;;;;1.50;1.40;;;13.10;90.40;;;;;;5031893;28;20183;-88
2022/02/15 10:17:13;;;;;;;1.58;1.48;;;13.50;91.60;;;;;;5025222;28;20241;-86
2022/02/15 10:19:40;;;;;;;2.17;1.50;;;13.00;90.80;;;;;;5031509;28;20323;-87
2022/02/15 10:22:06;;;;;;;1.70;1.60;;;12.50;91.30;;;;;;5033752;28;20186;-88
2022/02/15 10:24:38;;;;;;;1.90;1.80;;;12.60;91.60;;;;;;5031680;28;20190;-87
2022/02/15 10:27:13;;;;;;;1.65;1.55;;;12.40;91.30;;;;;;5028390;28;20706;-88
2022/02/15 10:29:43;;;;;;;2.10;1.50;;;12.10;91.00;;;;;;5045545;28;20179;-88
2022/02/15 10:32:14;;;;;;;4.15;1.80;;;12.50;90.20;;;;;;5032417;28;20662;-87
2022/02/15 10:34:51;;;;;;;4.07;1.70;;;12.80;90.00;;;;;;5032950;28;20186;-91
2022/02/15 10:37:17;;;;;;;1.60;1.50;;;13.00;89.20;;;;;;5036817;28;20210;-88
2022/02/15 10:39:52;;;;;;;4.00;1.75;;;13.80;90.50;;;;;;5031407;28;20181;-90
2022/02/15 10:42:23;;;;;;;2.00;1.27;;;12.70;90.20;;;;;;5043238;28;20200;-87
2022/02/15 10:44:57;;;;;;;2.63;1.80;;;11.40;90.30;;;;;;5032240;28;20247;-88
2022/02/15 10:47:22;;;;;;;1.48;1.38;;;11.30;91.40;;;;;;5031749;28;20201;-81
2022/02/15 10:49:48;;;;;;;6.83;3.10;;;11.30;91.80;;;;;;5013406;28;20237;-83
2022/02/15 10:52:14;;;;;;;2.63;1.60;;;11.10;91.50;;;;;;5033624;28;20661;-82
2022/02/15 10:54:43;;;;;;;2.43;1.40;;;10.90;91.60;;;;;;5028826;28;20230;-83
2022/02/15 10:57:17;;;;;;;2.00;1.40;;;10.80;91.90;;;;;;5032148;28;20230;-84
2022/02/15 10:59:45;;;;;;;1.83;1.60;;;11.00;92.10;;;;;;5031092;28;20198;-83
2022/02/15 11:02:25;;;;;;;3.15;1.25;;;10.80;91.90;;;;;;5031342;28;20203;-82
2022/02/15 11:04:52;;;;;;;1.45;1.35;;;10.70;92.00;;;;;;5022053;28;20213;-82
2022/02/15 11:07:24;;;;;;;1.90;1.45;;;9.90;92.40;;;;;;5035868;28;20199;-82
2022/02/15 11:10:14;;;;;;;1.23;1.13;;;10.50;93.20;;;;;;5026222;28;20729;-83
2022/02/15 11:12:50;;;;;;;1.30;1.13;;;10.10;92.60;;;;;;5039610;28;20306;-83
2022/02/15 11:15:38;;;;;;;1.50;1.10;;;10.10;92.60;;;;;;5032642;28;20214;-83
2022/02/15 11:18:07;;;;;;;2.00;1.20;;;9.90;93.10;;;;;;5018346;28;20214;-83
2022/02/15 11:20:56;;;;;;;1.55;1.20;;;10.00;92.30;;;;;;5020052;28;20186;-84
2022/02/15 11:23:52;;;;;;;1.63;1.17;;;10.30;92.50;;;;;;5030150;28;20663;-84
2022/02/15 11:26:18;;;;;;;1.35;1.10;;;10.30;91.90;;;;;;5046618;28;20211;-83
2022/02/15 11:28:57;;;;;;;1.80;1.40;;;10.20;91.90;;;;;;5032009;28;20279;-84
2022/02/15 11:31:24;;;;;;;2.70;2.15;;;9.80;91.80;;;;;;5028748;28;20209;-84
2022/02/15 11:33:51;;;;;;;5.75;1.17;;;10.60;91.90;;;;;;5023077;28;20241;-83
2022/02/15 11:36:19;;;;;;;3.10;1.75;;;10.30;91.60;;;;;;5039374;28;20216;-83
2022/02/15 11:39:00;;;;;;;2.45;1.80;;;10.30;91.70;;;;;;5029947;28;20241;-83
2022/02/15 11:41:28;;;;;;;2.40;1.50;;;10.50;92.40;;;;;;5031528;28;20273;-83
2022/02/15 11:43:59;;;;;;;2.80;1.35;;;10.30;92.40;;;;;;5023736;28;20189;-83
2022/02/15 11:46:43;;;;;;;3.38;1.30;;;10.40;92.30;;;;;;5028541;28;20214;-88
2022/02/15 11:49:11;;;;;;;1.60;1.00;;;10.40;91.70;;;;;;5013926;28;20277;-87
2022/02/15 11:51:37;;;;;;;1.30;1.20;;;10.50;91.00;;;;;;5029229;28;20188;-89
2022/02/15 11:54:04;;;;;;;1.50;1.40;;;10.70;90.50;;;;;;5037424;28;20194;-85
2022/02/15 11:56:30;;;;;;;3.42;1.88;;;10.80;91.00;;;;;;5036078;28;20217;-87
2022/02/15 11:58:57;;;;;;;3.83;1.30;;;10.30;90.80;;;;;;5019663;28;20197;-87
2022/02/15 12:01:30;;;;;;;3.75;1.23;;;10.50;89.20;;;;;;5030266;28;20438;-84
2022/02/15 12:04:00;;;;;;;1.20;0.90;;;11.00;89.20;;;;;;5015161;28;20651;-83
2022/02/15 12:06:42;;;;;;;1.90;0.90;;;10.70;88.40;;;;;;5029880;28;20228;-85
2022/02/15 12:09:11;;;;;;;1.83;1.23;;;11.40;87.80;;;;;;5031996;28;20178;-83
2022/02/15 12:11:41;;;;;;;1.48;1.00;;;11.10;87.30;;;;;;5044340;28;20184;-86
2022/02/15 12:14:10;;;;;;;1.90;1.58;;;11.40;86.00;;;;;;5034033;28;20184;-84
2022/02/15 12:16:52;;;;;;;2.25;1.25;;;11.20;85.70;;;;;;5041575;28;20211;-84
2022/02/15 12:19:29;;;;;;;1.65;1.55;;;11.20;86.00;;;;;;5017560;28;20721;-86
2022/02/15 12:22:00;;;;;;;2.95;1.60;;;11.80;86.60;;;;;;5038385;28;20197;-84
2022/02/15 12:24:27;;;;;;;2.35;1.40;;;12.20;85.90;;;;;;5021504;28;20265;-84
2022/02/15 12:26:55;;;;;;;1.85;1.20;;;11.90;84.50;;;;;;5032077;28;20228;-86
2022/02/15 12:29:20;;;;;;;1.65;1.55;;;12.00;84.00;;;;;;5030241;28;20189;-86
2022/02/15 12:31:51;;;;;;;2.63;1.47;;;12.20;83.80;;;;;;5027454;28;20633;-85
2022/02/15 12:34:17;;;;;;;7.68;2.50;;;11.90;84.70;;;;;;5026142;28;20198;-85
2022/02/15 12:36:42;;;;;;;2.00;1.27;;;11.90;86.50;;;;;;5036719;28;20205;-82
2022/02/15 12:39:10;;;;;;;3.37;1.73;;;11.60;86.90;;;;;;5029097;28;20190;-82
2022/02/15 12:41:38;;;;;;;2.63;1.85;;;11.70;87.00;;;;;;5027542;28;20219;-84
2022/02/15 12:44:05;;;;;;;2.65;1.75;;;10.90;87.30;;;;;;5021087;28;20192;-84
2022/02/15 12:46:31;;;;;;;4.15;1.63;;;11.20;88.30;;;;;;5032977;28;20226;-89
2022/02/15 12:48:58;;;;;;;3.10;1.80;;;11.60;89.30;;;;;;5026010;28;20299;-84
2022/02/15 12:51:24;;;;;;;2.25;2.05;;;11.30;88.40;;;;;;5027207;28;20191;-84
2022/02/15 12:53:50;;;;;;;2.25;2.05;;;11.10;88.70;;;;;;5027726;28;20175;-87
2022/02/15 12:56:20;;;;;;;2.33;1.70;;;10.90;89.10;;;;;;5034551;28;20222;-84
2022/02/15 12:58:47;;;;;;;2.75;2.40;;;11.00;90.40;;;;;;5028299;28;20210;-87
2022/02/15 13:01:15;;;;;;;2.00;1.70;;;11.10;91.70;;;;;;5027770;28;20616;-86